createdAt,value
2023-01-18T00:02:15.679Z,0.10
2023-01-18T00:04:43.322Z,0.10
2023-01-18T00:07:12.247Z,0.08
2023-01-18T00:09:39.708Z,0.08
2023-01-18T00:12:07.413Z,0.07
2023-01-18T00:14:34.949Z,0.07
2023-01-18T00:17:02.432Z,0.05
2023-01-18T00:19:29.859Z,0.05
2023-01-18T00:21:57.850Z,0.04
2023-01-18T00:24:27.800Z,0.03
2023-01-18T00:26:55.357Z,0.01
2023-01-18T00:29:22.920Z,0.01
2023-01-18T00:31:50.489Z,-0.01
2023-01-18T00:34:18.141Z,-0.02
2023-01-18T00:36:45.609Z,-0.04
2023-01-18T00:39:15.432Z,-0.04
2023-01-18T00:42:04.945Z,-0.05
2023-01-18T00:44:31.946Z,-0.05
2023-01-18T00:46:59.506Z,-0.07
2023-01-18T00:49:27.050Z,-0.07
2023-01-18T00:51:56.783Z,-0.08
2023-01-18T00:54:25.565Z,-0.09
2023-01-18T00:56:54.533Z,-0.09
2023-01-18T00:59:22.038Z,-0.11
2023-01-18T01:03:23.501Z,-0.12
2023-01-18T01:06:08.555Z,-0.14
2023-01-18T01:08:36.110Z,-0.16
2023-01-18T01:11:07.620Z,-0.17
2023-01-18T01:13:52.672Z,-0.19
2023-01-18T01:16:37.482Z,-0.19
2023-01-18T01:19:23.717Z,-0.19
2023-01-18T01:22:08.507Z,-0.19
2023-01-18T01:24:53.502Z,-0.21
2023-01-18T01:27:21.033Z,-0.22
2023-01-18T01:29:48.557Z,-0.23
2023-01-18T01:32:16.089Z,-0.23
2023-01-18T01:34:44.900Z,-0.21
2023-01-18T01:37:12.369Z,-0.22
2023-01-18T01:39:39.856Z,-0.23
2023-01-18T01:42:07.389Z,-0.24
2023-01-18T01:44:42.045Z,-0.24
2023-01-18T01:47:10.724Z,-0.24
2023-01-18T01:49:40.121Z,-0.24
2023-01-18T01:52:09.679Z,-0.24
2023-01-18T01:54:37.918Z,-0.23
2023-01-18T01:57:06.342Z,-0.21
2023-01-18T01:59:33.878Z,-0.23
2023-01-18T02:02:01.427Z,-0.21
2023-01-18T02:04:28.943Z,-0.20
2023-01-18T02:06:56.429Z,-0.23
2023-01-18T02:09:25.345Z,-0.24
2023-01-18T02:11:52.792Z,-0.24
2023-01-18T02:14:20.369Z,-0.25
2023-01-18T02:16:52.680Z,-0.26
2023-01-18T02:19:28.625Z,-0.26
2023-01-18T02:21:56.837Z,-0.26
2023-01-18T02:24:32.042Z,-0.27
2023-01-18T02:27:04.241Z,-0.28
2023-01-18T02:29:38.860Z,-0.28
2023-01-18T02:32:13.768Z,-0.27
2023-01-18T02:34:42.144Z,-0.28
2023-01-18T02:37:12.012Z,-0.27
2023-01-18T02:39:42.447Z,-0.29
2023-01-18T02:42:28.666Z,-0.29
2023-01-18T02:45:14.815Z,-0.26
2023-01-18T02:47:42.638Z,-0.28
2023-01-18T02:50:10.954Z,-0.28
2023-01-18T02:52:39.495Z,-0.29
2023-01-18T02:55:07.608Z,-0.29
2023-01-18T02:57:35.064Z,-0.31
2023-01-18T03:00:05.062Z,-0.31
2023-01-18T03:02:32.604Z,-0.32
2023-01-18T03:05:00.193Z,-0.31
2023-01-18T03:07:29.876Z,-0.33
2023-01-18T03:09:57.846Z,-0.33
2023-01-18T03:12:25.762Z,-0.33
2023-01-18T03:14:54.620Z,-0.35
2023-01-18T03:17:24.518Z,-0.34
2023-01-18T03:20:11.190Z,-0.34
2023-01-18T03:22:57.277Z,-0.34
2023-01-18T03:25:26.249Z,-0.36
2023-01-18T03:28:11.425Z,-0.38
2023-01-18T03:30:56.371Z,-0.39
2023-01-18T03:33:44.895Z,-0.40
2023-01-18T03:36:13.142Z,-0.42
2023-01-18T03:38:42.396Z,-0.43
2023-01-18T03:41:09.933Z,-0.45
2023-01-18T03:43:37.696Z,-0.47
2023-01-18T03:46:05.685Z,-0.48
2023-01-18T03:48:34.625Z,-0.49
2023-01-18T03:51:03.711Z,-0.51
2023-01-18T03:53:32.787Z,-0.51
2023-01-18T03:56:01.918Z,-0.51
2023-01-18T03:58:31.320Z,-0.53
2023-01-18T04:00:58.847Z,-0.55
2023-01-18T04:03:26.373Z,-0.57
2023-01-18T04:05:55.266Z,-0.58
2023-01-18T04:08:22.756Z,-0.61
2023-01-18T04:10:50.265Z,-0.61
2023-01-18T04:13:17.850Z,-0.64
2023-01-18T04:15:45.376Z,-0.65
2023-01-18T04:18:12.913Z,-0.67
2023-01-18T04:20:40.393Z,-0.69
2023-01-18T04:23:09.254Z,-0.69
2023-01-18T04:25:38.369Z,-0.72
2023-01-18T04:28:06.219Z,-0.71
2023-01-18T04:30:33.917Z,-0.72
2023-01-18T04:33:01.938Z,-0.72
2023-01-18T04:35:29.507Z,-0.73
2023-01-18T04:37:56.985Z,-0.72
2023-01-18T04:40:25.817Z,-0.73
2023-01-18T04:42:54.210Z,-0.73
2023-01-18T04:45:21.725Z,-0.74
2023-01-18T04:47:49.173Z,-0.74
2023-01-18T04:50:16.978Z,-0.73
2023-01-18T04:52:44.727Z,-0.74
2023-01-18T04:55:15.833Z,-0.74
2023-01-18T04:57:44.990Z,-0.74
2023-01-18T05:00:13.185Z,-0.76
2023-01-18T05:02:40.795Z,-0.75
2023-01-18T05:05:08.598Z,-0.75
2023-01-18T05:07:36.136Z,-0.75
2023-01-18T05:10:03.958Z,-0.76
2023-01-18T05:12:31.633Z,-0.76
2023-01-18T05:15:00.490Z,-0.76
2023-01-18T05:17:30.516Z,-0.76
2023-01-18T05:19:58.114Z,-0.74
2023-01-18T05:22:25.681Z,-0.75
2023-01-18T05:24:53.529Z,-0.76
2023-01-18T05:27:21.039Z,-0.76
2023-01-18T05:29:48.792Z,-0.76
2023-01-18T05:32:17.664Z,-0.76
2023-01-18T05:34:45.186Z,-0.76
2023-01-18T05:37:12.685Z,-0.77
2023-01-18T05:39:40.190Z,-0.79
2023-01-18T05:42:08.515Z,-0.79
2023-01-18T05:44:36.015Z,-0.80
2023-01-18T05:47:03.422Z,-0.81
2023-01-18T05:49:32.314Z,-0.81
2023-01-18T05:51:59.824Z,-0.84
2023-01-18T05:54:27.305Z,-0.85
2023-01-18T05:56:54.833Z,-0.86
2023-01-18T05:59:22.372Z,-0.87
2023-01-18T06:01:50.115Z,-0.89
2023-01-18T06:04:17.853Z,-0.91
2023-01-18T06:06:46.770Z,-0.93
2023-01-18T06:09:14.272Z,-0.94
2023-01-18T06:11:41.786Z,-0.94
2023-01-18T06:14:09.466Z,-0.93
2023-01-18T06:16:37.012Z,-0.91
2023-01-18T06:19:05.641Z,-0.91
2023-01-18T06:21:33.155Z,-0.91
2023-01-18T06:24:02.049Z,-0.89
2023-01-18T06:26:31.166Z,-0.89
2023-01-18T06:28:58.609Z,-0.90
2023-01-18T06:31:26.121Z,-0.91
2023-01-18T06:33:53.706Z,-0.91
2023-01-18T06:36:21.241Z,-0.89
2023-01-18T06:38:48.672Z,-0.89
2023-01-18T06:41:17.908Z,-0.88
2023-01-18T06:43:45.501Z,-0.88
2023-01-18T06:46:12.972Z,-0.87
2023-01-18T06:48:40.603Z,-0.86
2023-01-18T06:51:08.319Z,-0.84
2023-01-18T06:53:37.865Z,-0.83
2023-01-18T06:56:10.105Z,-0.83
2023-01-18T06:58:39.016Z,-0.83
2023-01-18T07:01:06.883Z,-0.82
2023-01-18T07:03:34.745Z,-0.81
2023-01-18T07:06:02.836Z,-0.81
2023-01-18T07:08:31.421Z,-0.81
2023-01-18T07:10:59.445Z,-0.82
2023-01-18T07:13:27.033Z,-0.81
2023-01-18T07:16:00.747Z,-0.82
2023-01-18T07:18:28.837Z,-0.81
2023-01-18T07:20:59.961Z,-0.78
2023-01-18T07:23:27.480Z,-0.77
2023-01-18T07:26:01.554Z,-0.79
2023-01-18T07:28:29.148Z,-0.79
2023-01-18T07:30:58.015Z,-0.79
2023-01-18T07:33:25.489Z,-0.79
2023-01-18T07:35:53.312Z,-0.79
2023-01-18T07:38:20.958Z,-0.79
2023-01-18T07:40:48.501Z,-0.79
2023-01-18T07:43:16.218Z,-0.79
2023-01-18T07:45:43.846Z,-0.80
2023-01-18T07:48:12.704Z,-0.79
2023-01-18T07:50:40.162Z,-0.79
2023-01-18T07:53:09.224Z,-0.80
2023-01-18T07:55:38.781Z,-0.80
2023-01-18T07:58:06.242Z,-0.81
2023-01-18T08:00:34.753Z,-0.81
2023-01-18T08:03:02.784Z,-0.79
2023-01-18T08:05:31.802Z,-0.81
2023-01-18T08:07:59.540Z,-0.80
2023-01-18T08:10:27.554Z,-0.79
2023-01-18T08:12:55.162Z,-0.79
2023-01-18T08:15:22.736Z,-0.79
2023-01-18T08:17:51.234Z,-0.78
2023-01-18T08:20:20.830Z,-0.78
2023-01-18T08:22:49.678Z,-0.77
2023-01-18T08:25:17.500Z,-0.77
2023-01-18T08:27:45.016Z,-0.77
2023-01-18T08:30:12.848Z,-0.76
2023-01-18T08:32:40.865Z,-0.75
2023-01-18T08:35:08.939Z,-0.74
2023-01-18T08:37:36.350Z,-0.74
2023-01-18T08:40:05.674Z,-0.73
2023-01-18T08:42:33.097Z,-0.73
2023-01-18T08:45:00.859Z,-0.71
2023-01-18T08:47:28.376Z,-0.69
2023-01-18T08:49:56.461Z,-0.68
2023-01-18T08:52:24.032Z,-0.68
2023-01-18T08:54:52.422Z,-0.66
2023-01-18T08:57:21.319Z,-0.63
2023-01-18T08:59:48.718Z,-0.61
2023-01-18T09:02:16.776Z,-0.58
2023-01-18T09:04:48.438Z,-0.54
2023-01-18T09:07:15.908Z,-0.53
2023-01-18T09:09:44.793Z,-0.50
2023-01-18T09:12:12.334Z,-0.49
2023-01-18T09:14:41.240Z,-0.46
2023-01-18T09:17:08.736Z,-0.44
2023-01-18T09:19:36.139Z,-0.42
2023-01-18T09:22:03.667Z,-0.39
2023-01-18T09:24:31.204Z,-0.37
2023-01-18T09:26:58.764Z,-0.33
2023-01-18T09:29:26.360Z,-0.33
2023-01-18T09:31:55.920Z,-0.32
2023-01-18T09:34:23.590Z,-0.29
2023-01-18T09:36:51.327Z,-0.29
2023-01-18T09:39:18.969Z,-0.29
2023-01-18T09:41:49.314Z,-0.28
2023-01-18T09:44:18.579Z,-0.24
2023-01-18T09:46:46.221Z,-0.21
2023-01-18T09:49:16.661Z,-0.18
2023-01-18T09:51:45.908Z,-0.12
2023-01-18T09:54:19.450Z,-0.08
2023-01-18T09:56:48.471Z,-0.04
2023-01-18T09:59:19.287Z,0.01
2023-01-18T10:01:47.031Z,0.04
2023-01-18T10:04:17.417Z,0.10
2023-01-18T10:06:45.940Z,0.17
2023-01-18T10:09:15.551Z,0.24
2023-01-18T10:11:47.260Z,0.30
2023-01-18T10:14:16.826Z,0.36
2023-01-18T10:16:44.393Z,0.41
2023-01-18T10:19:14.652Z,0.48
2023-01-18T10:21:47.419Z,0.54
2023-01-18T10:24:22.085Z,0.58
2023-01-18T10:26:49.989Z,0.62
2023-01-18T10:29:18.157Z,0.66
2023-01-18T10:31:47.324Z,0.71
2023-01-18T10:34:15.597Z,0.75
2023-01-18T10:36:43.979Z,0.82
2023-01-18T10:39:23.824Z,0.88
2023-01-18T10:41:51.418Z,0.97
2023-01-18T10:44:18.894Z,1.01
2023-01-18T10:46:46.504Z,1.08
2023-01-18T10:49:28.963Z,1.15
2023-01-18T10:51:56.500Z,1.22
2023-01-18T10:54:27.121Z,1.30
2023-01-18T10:57:02.225Z,1.35
2023-01-18T10:59:33.213Z,1.43
2023-01-18T11:02:00.852Z,1.50
2023-01-18T11:04:29.150Z,1.54
2023-01-18T11:06:57.162Z,1.60
2023-01-18T11:09:40.477Z,1.65
2023-01-18T11:12:36.121Z,1.68
2023-01-18T11:15:23.732Z,1.73
2023-01-18T11:18:01.434Z,1.80
2023-01-18T11:20:33.335Z,1.84
2023-01-18T11:23:01.916Z,1.90
2023-01-18T11:25:37.634Z,1.92
2023-01-18T11:28:07.412Z,1.96
2023-01-18T11:30:34.983Z,2.00
2023-01-18T11:33:02.666Z,2.05
2023-01-18T11:35:32.320Z,2.09
2023-01-18T11:38:00.553Z,2.16
2023-01-18T11:40:28.966Z,2.21
2023-01-18T11:42:59.677Z,2.28
2023-01-18T11:45:27.838Z,2.33
2023-01-18T11:47:57.956Z,2.38
2023-01-18T11:50:28.352Z,2.46
2023-01-18T11:52:57.615Z,2.55
2023-01-18T11:55:26.585Z,2.60
2023-01-18T11:57:54.501Z,2.67
2023-01-18T12:00:28.658Z,2.74
2023-01-18T12:03:04.161Z,2.81
2023-01-18T12:05:42.391Z,2.87
2023-01-18T12:08:15.881Z,2.95
2023-01-18T12:10:45.201Z,3.01
2023-01-18T12:13:20.198Z,3.08
2023-01-18T12:16:00.977Z,3.10
2023-01-18T12:18:41.772Z,3.14
2023-01-18T12:21:09.845Z,3.17
2023-01-18T12:23:45.140Z,3.19
2023-01-18T12:26:16.719Z,3.24
2023-01-18T12:28:50.419Z,3.29
2023-01-18T12:31:22.246Z,3.31
2023-01-18T12:33:54.618Z,3.33
2023-01-18T12:36:29.346Z,3.33
2023-01-18T12:38:57.316Z,3.32
2023-01-18T12:41:37.818Z,3.30
2023-01-18T12:44:30.615Z,3.29
2023-01-18T12:47:02.848Z,3.31
2023-01-18T12:49:30.798Z,3.31
2023-01-18T12:52:12.930Z,3.29
2023-01-18T12:54:45.998Z,3.28
2023-01-18T12:57:14.070Z,3.29
2023-01-18T12:59:42.228Z,3.29
2023-01-18T13:02:24.582Z,3.31
2023-01-18T13:04:52.754Z,3.33
2023-01-18T13:07:21.897Z,3.34
2023-01-18T13:09:50.079Z,3.35
2023-01-18T13:12:17.567Z,3.39
2023-01-18T13:14:45.440Z,3.42
2023-01-18T13:17:14.831Z,3.46
2023-01-18T13:19:42.996Z,3.48
2023-01-18T13:22:13.861Z,3.50
2023-01-18T13:24:46.371Z,3.55
2023-01-18T13:27:14.278Z,3.58
2023-01-18T13:29:41.972Z,3.62
2023-01-18T13:32:28.838Z,3.67
2023-01-18T13:35:54.361Z,4.44
2023-01-18T13:38:40.299Z,4.68
2023-01-18T13:41:10.553Z,4.86
2023-01-18T13:44:03.804Z,5.00
2023-01-18T13:46:33.950Z,5.13
2023-01-18T13:49:03.153Z,5.19
2023-01-18T13:51:57.367Z,5.29
2023-01-18T13:55:02.179Z,5.36
2023-01-18T13:57:31.635Z,5.40
2023-01-18T14:00:00.053Z,5.43
2023-01-18T14:02:32.027Z,5.45
2023-01-18T14:05:02.489Z,5.47
2023-01-18T14:07:38.674Z,5.51
2023-01-18T14:10:08.220Z,5.53
2023-01-18T14:12:49.738Z,5.55
2023-01-18T14:15:47.237Z,5.53
2023-01-18T14:18:22.156Z,5.53
2023-01-18T14:21:16.483Z,5.51
2023-01-18T14:24:06.444Z,5.51
2023-01-18T14:26:36.161Z,5.45
2023-01-18T14:31:21.276Z,5.40
2023-01-18T14:33:49.613Z,5.38
2023-01-18T14:36:21.688Z,5.33
2023-01-18T14:39:07.283Z,5.27
2023-01-18T14:41:35.354Z,5.23
2023-01-18T14:44:03.079Z,5.17
2023-01-18T14:46:32.741Z,5.12
2023-01-18T14:49:02.552Z,5.02
2023-01-18T14:51:31.978Z,4.96
2023-01-18T14:54:01.958Z,4.93
2023-01-18T14:56:31.962Z,4.89
2023-01-18T14:59:01.414Z,4.79
2023-01-18T15:01:33.324Z,4.71
2023-01-18T15:04:02.479Z,4.65
2023-01-18T15:06:41.782Z,4.61
2023-01-18T15:09:10.442Z,4.55
2023-01-18T15:11:39.110Z,4.49
2023-01-18T15:14:10.208Z,4.49
2023-01-18T15:16:39.969Z,4.49
2023-01-18T15:19:14.679Z,4.49
2023-01-18T15:21:43.720Z,4.47
2023-01-18T15:24:15.412Z,4.41
2023-01-18T15:26:45.829Z,4.39
2023-01-18T15:29:17.703Z,4.40
2023-01-18T15:31:52.766Z,4.35
2023-01-18T15:34:26.965Z,4.35
2023-01-18T15:36:56.452Z,4.29
2023-01-18T15:39:24.180Z,4.25
2023-01-18T15:41:52.829Z,4.25
2023-01-18T15:44:43.481Z,4.20
2023-01-18T15:47:17.755Z,4.19
2023-01-18T15:49:49.917Z,4.19
2023-01-18T15:52:17.911Z,4.16
2023-01-18T15:54:50.606Z,4.12
2023-01-18T15:57:20.611Z,4.08
2023-01-18T15:59:49.150Z,4.07
2023-01-18T16:02:20.045Z,4.04
2023-01-18T16:04:49.689Z,4.05
2023-01-18T16:07:37.725Z,4.00
2023-01-18T16:10:30.448Z,3.96
2023-01-18T16:13:22.536Z,3.97
2023-01-18T16:16:09.418Z,3.94
2023-01-18T16:18:43.864Z,3.85
2023-01-18T16:21:15.490Z,3.90
2023-01-18T16:23:46.147Z,3.88
2023-01-18T16:26:15.137Z,3.86
2023-01-18T16:28:42.951Z,3.82
2023-01-18T16:31:10.635Z,3.82
2023-01-18T16:33:38.295Z,3.78
2023-01-18T16:36:24.224Z,3.77
2023-01-18T16:38:51.947Z,3.79
2023-01-18T16:41:19.631Z,3.74
2023-01-18T16:43:49.330Z,3.72
2023-01-18T16:46:17.215Z,3.68
2023-01-18T16:48:44.969Z,3.66
2023-01-18T16:51:18.631Z,3.65
2023-01-18T16:53:48.224Z,3.63
2023-01-18T16:56:16.624Z,3.62
2023-01-18T16:58:44.770Z,3.55
2023-01-18T17:01:15.716Z,3.61
2023-01-18T17:03:43.963Z,3.62
2023-01-18T17:06:17.676Z,3.63
2023-01-18T17:08:45.930Z,3.63
2023-01-18T17:11:13.925Z,3.59
2023-01-18T17:13:42.052Z,3.61
2023-01-18T17:16:14.208Z,3.61
2023-01-18T17:18:42.189Z,3.62
2023-01-18T17:21:11.096Z,3.62
2023-01-18T17:23:40.910Z,3.62
2023-01-18T17:26:09.082Z,3.60
2023-01-18T17:28:36.747Z,3.61
2023-01-18T17:31:04.567Z,3.61
2023-01-18T17:33:32.661Z,3.62
2023-01-18T17:36:00.395Z,3.62
2023-01-18T17:41:00.609Z,3.65
2023-01-18T17:43:34.027Z,3.63
2023-01-18T17:46:04.113Z,3.60
2023-01-18T17:48:31.963Z,3.59
2023-01-18T17:50:59.708Z,3.61
2023-01-18T17:53:27.487Z,3.61
2023-01-18T17:55:55.289Z,3.59
2023-01-18T17:58:24.337Z,3.58
2023-01-18T18:00:52.298Z,3.56
2023-01-18T18:03:20.685Z,3.55
2023-01-18T18:05:48.438Z,3.52
2023-01-18T18:08:18.451Z,3.56
2023-01-18T18:10:46.163Z,3.55
2023-01-18T18:13:13.831Z,3.58
2023-01-18T18:15:49.261Z,3.59
2023-01-18T18:18:24.196Z,3.63
2023-01-18T18:20:56.807Z,3.60
2023-01-18T18:23:24.559Z,3.61
2023-01-18T18:25:52.242Z,3.64
2023-01-18T18:28:20.000Z,3.64
2023-01-18T18:30:49.565Z,3.66
2023-01-18T18:33:18.305Z,3.67
2023-01-18T18:35:46.363Z,3.65
2023-01-18T18:38:15.318Z,3.65
2023-01-18T18:40:43.143Z,3.62
2023-01-18T18:43:10.865Z,3.58
2023-01-18T18:45:38.614Z,3.58
2023-01-18T18:48:08.030Z,3.55
2023-01-18T18:50:35.698Z,3.57
2023-01-18T18:53:03.498Z,3.55
2023-01-18T18:55:31.314Z,3.55
2023-01-18T18:57:59.203Z,3.59
2023-01-18T19:00:27.312Z,3.61
2023-01-18T19:02:58.979Z,3.66
2023-01-18T19:05:28.708Z,3.66
2023-01-18T19:07:56.539Z,3.66
2023-01-18T19:10:27.369Z,3.66
2023-01-18T19:12:55.920Z,3.70
2023-01-18T19:15:23.760Z,3.71
2023-01-18T19:17:52.194Z,3.72
2023-01-18T19:20:20.709Z,3.76
2023-01-18T19:22:50.566Z,3.75
2023-01-18T19:25:18.974Z,3.80
2023-01-18T19:27:46.999Z,3.78
2023-01-18T19:30:18.115Z,3.79
2023-01-18T19:32:46.935Z,3.77
2023-01-18T19:35:14.894Z,3.79
2023-01-18T19:37:42.622Z,3.80
2023-01-18T19:40:13.110Z,3.78
2023-01-18T19:42:41.073Z,3.75
2023-01-18T19:45:11.465Z,3.75
2023-01-18T19:47:41.776Z,3.76
2023-01-18T19:50:10.406Z,3.78
2023-01-18T19:52:38.255Z,3.78
2023-01-18T19:55:06.692Z,3.78
2023-01-18T19:57:35.827Z,3.80
2023-01-18T20:00:07.025Z,3.85
2023-01-18T20:02:34.993Z,3.85
2023-01-18T20:05:03.597Z,3.83
2023-01-18T20:07:31.679Z,3.80
2023-01-18T20:09:59.443Z,3.74
2023-01-18T20:12:31.250Z,3.75
2023-01-18T20:15:00.516Z,3.78
2023-01-18T20:17:28.264Z,3.76
2023-01-18T20:19:55.903Z,3.79
2023-01-18T20:22:24.208Z,3.82
2023-01-18T20:24:51.913Z,3.81
2023-01-18T20:27:19.765Z,3.80
2023-01-18T20:29:47.634Z,3.80
2023-01-18T20:32:17.996Z,3.82
2023-01-18T20:34:46.989Z,3.84
2023-01-18T20:37:15.902Z,3.81
2023-01-18T20:39:43.655Z,3.83
2023-01-18T20:42:11.422Z,3.85
2023-01-18T20:44:40.421Z,3.86
2023-01-18T20:47:08.143Z,3.86
2023-01-18T20:49:40.301Z,3.88
2023-01-18T20:52:08.112Z,3.90
2023-01-18T20:54:36.585Z,3.93
2023-01-18T20:57:04.855Z,3.92
2023-01-18T20:59:32.681Z,3.93
2023-01-18T21:02:00.534Z,3.91
2023-01-18T21:04:28.422Z,3.90
2023-01-18T21:06:58.290Z,3.90
2023-01-18T21:09:26.428Z,3.88
2023-01-18T21:11:54.275Z,3.88
2023-01-18T21:14:22.498Z,3.82
2023-01-18T21:16:50.261Z,3.83
2023-01-18T21:19:18.257Z,3.83
2023-01-18T21:21:46.078Z,3.83
2023-01-18T21:24:15.219Z,3.82
2023-01-18T21:26:42.942Z,3.80
2023-01-18T21:29:10.618Z,3.81
2023-01-18T21:31:40.133Z,3.81
2023-01-18T21:34:08.722Z,3.80
2023-01-18T21:36:36.496Z,3.75
2023-01-18T21:39:04.338Z,3.72
2023-01-18T21:41:56.300Z,3.69
2023-01-18T21:44:41.627Z,3.67
2023-01-18T21:47:09.287Z,3.65
2023-01-18T21:52:59.455Z,3.59
2023-01-18T21:55:27.105Z,3.57
2023-01-18T21:58:19.119Z,3.53
2023-01-18T22:00:46.836Z,3.49
2023-01-18T22:03:15.299Z,3.45
2023-01-18T22:05:43.028Z,3.42
2023-01-18T22:08:10.795Z,3.38
2023-01-18T22:10:38.513Z,3.39
2023-01-18T22:13:07.589Z,3.37
2023-01-18T22:15:35.300Z,3.35
2023-01-18T22:18:03.363Z,3.34
2023-01-18T22:20:31.811Z,3.38
2023-01-18T22:22:59.712Z,3.40
2023-01-18T22:25:27.423Z,3.42
2023-01-18T22:27:55.147Z,3.40
2023-01-18T22:30:24.348Z,3.37
2023-01-18T22:32:52.004Z,3.35
2023-01-18T22:35:19.860Z,3.39
2023-01-18T22:37:47.561Z,3.42
2023-01-18T22:40:15.380Z,3.40
2023-01-18T22:42:43.109Z,3.42
2023-01-18T22:45:11.660Z,3.43
2023-01-18T22:47:43.213Z,3.47
2023-01-18T22:50:12.145Z,3.48
2023-01-18T22:52:39.895Z,3.46
2023-01-18T22:55:08.169Z,3.46
2023-01-18T22:57:35.901Z,3.49
2023-01-18T23:00:03.673Z,3.50
2023-01-18T23:02:33.265Z,3.50
2023-01-18T23:05:02.384Z,3.52
2023-01-18T23:07:30.136Z,3.52
2023-01-18T23:09:57.885Z,3.53
2023-01-18T23:12:25.595Z,3.52
2023-01-18T23:15:11.013Z,3.53
2023-01-18T23:17:43.153Z,3.52
2023-01-18T23:20:14.871Z,3.54
2023-01-18T23:22:42.672Z,3.52
2023-01-18T23:25:10.858Z,3.52
2023-01-18T23:27:38.615Z,3.52
2023-01-18T23:30:09.245Z,3.54
2023-01-18T23:32:37.384Z,3.53
2023-01-18T23:35:07.707Z,3.53
2023-01-18T23:37:36.805Z,3.56
2023-01-18T23:40:22.441Z,3.54
2023-01-18T23:43:07.756Z,3.53
2023-01-18T23:45:53.117Z,3.55
2023-01-18T23:48:38.737Z,3.53
2023-01-18T23:51:24.162Z,3.54
2023-01-18T23:54:11.703Z,3.52
2023-01-18T23:56:39.462Z,3.53
2023-01-18T23:59:07.077Z,3.57
